sensor_id;sensor_type;location;lat;lon;timestamp;P1;durP1;ratioP1;P2;durP2;ratioP2
38605;SDS011;24365;48.446;8.850;2023-05-27T00:04:57;8.80;;;5.88;;
38605;SDS011;24365;48.446;8.850;2023-05-27T00:09:58;9.23;;;6.47;;
38605;SDS011;24365;48.446;8.850;2023-05-27T00:14:59;9.30;;;6.33;;
38605;SDS011;24365;48.446;8.850;2023-05-27T00:20:00;8.80;;;5.80;;
38605;SDS011;24365;48.446;8.850;2023-05-27T00:25:07;10.82;;;6.25;;
38605;SDS011;24365;48.446;8.850;2023-05-27T00:30:08;10.63;;;5.80;;
38605;SDS011;24365;48.446;8.850;2023-05-27T00:35:10;10.07;;;6.57;;
38605;SDS011;24365;48.446;8.850;2023-05-27T00:40:11;10.07;;;6.25;;
38605;SDS011;24365;48.446;8.850;2023-05-27T00:45:15;8.65;;;5.47;;
38605;SDS011;24365;48.446;8.850;2023-05-27T00:50:17;11.63;;;6.23;;
38605;SDS011;24365;48.446;8.850;2023-05-27T00:55:19;10.88;;;5.78;;
38605;SDS011;24365;48.446;8.850;2023-05-27T01:00:23;8.03;;;5.63;;
38605;SDS011;24365;48.446;8.850;2023-05-27T01:05:24;11.45;;;6.38;;
38605;SDS011;24365;48.446;8.850;2023-05-27T01:10:27;11.45;;;6.35;;
38605;SDS011;24365;48.446;8.850;2023-05-27T01:15:39;9.10;;;5.97;;
38605;SDS011;24365;48.446;8.850;2023-05-27T01:20:42;8.27;;;6.20;;
38605;SDS011;24365;48.446;8.850;2023-05-27T01:25:44;12.00;;;6.75;;
38605;SDS011;24365;48.446;8.850;2023-05-27T01:30:45;11.52;;;5.85;;
38605;SDS011;24365;48.446;8.850;2023-05-27T01:35:49;11.45;;;6.40;;
38605;SDS011;24365;48.446;8.850;2023-05-27T01:52:45;10.90;;;5.55;;
38605;SDS011;24365;48.446;8.850;2023-05-27T01:57:46;12.50;;;6.20;;
38605;SDS011;24365;48.446;8.850;2023-05-27T02:02:47;14.52;;;5.72;;
38605;SDS011;24365;48.446;8.850;2023-05-27T02:07:49;9.82;;;5.78;;
38605;SDS011;24365;48.446;8.850;2023-05-27T02:12:50;12.80;;;6.23;;
38605;SDS011;24365;48.446;8.850;2023-05-27T02:17:51;9.63;;;5.95;;
38605;SDS011;24365;48.446;8.850;2023-05-27T02:22:56;10.48;;;5.28;;
38605;SDS011;24365;48.446;8.850;2023-05-27T02:27:57;11.80;;;5.80;;
38605;SDS011;24365;48.446;8.850;2023-05-27T02:32:58;10.83;;;5.40;;
38605;SDS011;24365;48.446;8.850;2023-05-27T02:37:59;11.82;;;5.57;;
38605;SDS011;24365;48.446;8.850;2023-05-27T02:43:02;8.55;;;5.13;;
38605;SDS011;24365;48.446;8.850;2023-05-27T02:48:03;12.15;;;4.80;;
38605;SDS011;24365;48.446;8.850;2023-05-27T02:53:05;9.57;;;4.93;;
38605;SDS011;24365;48.446;8.850;2023-05-27T02:58:07;11.55;;;5.68;;
38605;SDS011;24365;48.446;8.850;2023-05-27T03:03:08;12.67;;;5.37;;
38605;SDS011;24365;48.446;8.850;2023-05-27T03:08:10;12.35;;;5.30;;
38605;SDS011;24365;48.446;8.850;2023-05-27T03:13:11;8.47;;;5.17;;
38605;SDS011;24365;48.446;8.850;2023-05-27T03:18:12;10.10;;;5.67;;
38605;SDS011;24365;48.446;8.850;2023-05-27T03:23:13;9.40;;;4.93;;
38605;SDS011;24365;48.446;8.850;2023-05-27T03:28:15;8.15;;;4.93;;
38605;SDS011;24365;48.446;8.850;2023-05-27T03:38:18;9.45;;;5.72;;
38605;SDS011;24365;48.446;8.850;2023-05-27T03:43:20;10.63;;;4.82;;
38605;SDS011;24365;48.446;8.850;2023-05-27T03:48:21;10.23;;;5.32;;
38605;SDS011;24365;48.446;8.850;2023-05-27T03:53:22;8.37;;;5.10;;
38605;SDS011;24365;48.446;8.850;2023-05-27T03:58:23;9.27;;;5.13;;
38605;SDS011;24365;48.446;8.850;2023-05-27T04:03:24;10.30;;;5.43;;
38605;SDS011;24365;48.446;8.850;2023-05-27T04:13:28;11.60;;;5.67;;
38605;SDS011;24365;48.446;8.850;2023-05-27T04:18:29;8.40;;;4.40;;
38605;SDS011;24365;48.446;8.850;2023-05-27T04:23:30;7.73;;;4.90;;
38605;SDS011;24365;48.446;8.850;2023-05-27T04:28:32;9.77;;;5.88;;
38605;SDS011;24365;48.446;8.850;2023-05-27T04:33:36;9.15;;;5.32;;
38605;SDS011;24365;48.446;8.850;2023-05-27T04:38:38;11.18;;;5.80;;
38605;SDS011;24365;48.446;8.850;2023-05-27T04:43:42;10.00;;;4.90;;
38605;SDS011;24365;48.446;8.850;2023-05-27T04:48:45;13.07;;;5.93;;
38605;SDS011;24365;48.446;8.850;2023-05-27T04:53:47;14.00;;;6.25;;
38605;SDS011;24365;48.446;8.850;2023-05-27T04:58:49;11.00;;;5.63;;
38605;SDS011;24365;48.446;8.850;2023-05-27T05:03:55;13.48;;;5.97;;
38605;SDS011;24365;48.446;8.850;2023-05-27T05:09:21;11.73;;;5.95;;
38605;SDS011;24365;48.446;8.850;2023-05-27T05:14:23;11.52;;;5.70;;
38605;SDS011;24365;48.446;8.850;2023-05-27T05:24:26;10.88;;;5.68;;
38605;SDS011;24365;48.446;8.850;2023-05-27T05:29:27;9.97;;;6.10;;
38605;SDS011;24365;48.446;8.850;2023-05-27T05:34:28;10.83;;;6.40;;
38605;SDS011;24365;48.446;8.850;2023-05-27T05:39:30;11.02;;;6.15;;
38605;SDS011;24365;48.446;8.850;2023-05-27T05:44:31;15.60;;;6.05;;
38605;SDS011;24365;48.446;8.850;2023-05-27T05:49:34;12.32;;;4.85;;
38605;SDS011;24365;48.446;8.850;2023-05-27T05:54:36;13.88;;;5.40;;
38605;SDS011;24365;48.446;8.850;2023-05-27T05:59:38;13.90;;;4.82;;
38605;SDS011;24365;48.446;8.850;2023-05-27T06:04:40;16.90;;;5.40;;
38605;SDS011;24365;48.446;8.850;2023-05-27T06:09:42;18.42;;;4.78;;
38605;SDS011;24365;48.446;8.850;2023-05-27T06:14:51;17.25;;;4.90;;
38605;SDS011;24365;48.446;8.850;2023-05-27T06:20:05;11.07;;;4.50;;
38605;SDS011;24365;48.446;8.850;2023-05-27T06:25:08;17.27;;;5.15;;
38605;SDS011;24365;48.446;8.850;2023-05-27T06:30:24;12.15;;;4.57;;
38605;SDS011;24365;48.446;8.850;2023-05-27T06:35:27;15.00;;;4.88;;
38605;SDS011;24365;48.446;8.850;2023-05-27T06:40:28;13.03;;;4.70;;
38605;SDS011;24365;48.446;8.850;2023-05-27T06:45:31;11.75;;;4.78;;
38605;SDS011;24365;48.446;8.850;2023-05-27T06:50:56;14.48;;;5.00;;
38605;SDS011;24365;48.446;8.850;2023-05-27T06:55:58;11.68;;;4.82;;
38605;SDS011;24365;48.446;8.850;2023-05-27T07:01:08;17.77;;;5.05;;
38605;SDS011;24365;48.446;8.850;2023-05-27T07:06:14;17.02;;;5.75;;
38605;SDS011;24365;48.446;8.850;2023-05-27T07:11:23;16.55;;;5.50;;
38605;SDS011;24365;48.446;8.850;2023-05-27T07:16:30;12.32;;;4.38;;
38605;SDS011;24365;48.446;8.850;2023-05-27T07:21:32;9.82;;;4.75;;
38605;SDS011;24365;48.446;8.850;2023-05-27T07:26:37;14.73;;;4.68;;
38605;SDS011;24365;48.446;8.850;2023-05-27T07:31:39;14.07;;;5.10;;
38605;SDS011;24365;48.446;8.850;2023-05-27T07:36:46;19.33;;;5.45;;
38605;SDS011;24365;48.446;8.850;2023-05-27T07:41:49;11.13;;;4.80;;
38605;SDS011;24365;48.446;8.850;2023-05-27T07:46:50;16.73;;;5.53;;
38605;SDS011;24365;48.446;8.850;2023-05-27T07:51:51;9.85;;;4.85;;
38605;SDS011;24365;48.446;8.850;2023-05-27T07:56:52;12.15;;;4.43;;
38605;SDS011;24365;48.446;8.850;2023-05-27T08:01:54;15.27;;;5.93;;
38605;SDS011;24365;48.446;8.850;2023-05-27T08:06:55;14.17;;;5.67;;
38605;SDS011;24365;48.446;8.850;2023-05-27T08:12:06;12.77;;;5.70;;
38605;SDS011;24365;48.446;8.850;2023-05-27T08:17:26;12.75;;;5.28;;
38605;SDS011;24365;48.446;8.850;2023-05-27T08:22:30;17.13;;;6.18;;
38605;SDS011;24365;48.446;8.850;2023-05-27T08:27:44;15.53;;;5.97;;
38605;SDS011;24365;48.446;8.850;2023-05-27T08:33:14;16.85;;;5.78;;
38605;SDS011;24365;48.446;8.850;2023-05-27T08:38:15;15.30;;;6.13;;
38605;SDS011;24365;48.446;8.850;2023-05-27T08:43:18;14.98;;;5.53;;
38605;SDS011;24365;48.446;8.850;2023-05-27T08:53:22;17.65;;;6.28;;
38605;SDS011;24365;48.446;8.850;2023-05-27T08:58:25;11.57;;;5.30;;
38605;SDS011;24365;48.446;8.850;2023-05-27T09:03:29;13.88;;;5.70;;
38605;SDS011;24365;48.446;8.850;2023-05-27T09:08:32;13.68;;;5.65;;
38605;SDS011;24365;48.446;8.850;2023-05-27T09:13:36;11.52;;;5.28;;
38605;SDS011;24365;48.446;8.850;2023-05-27T09:18:49;17.08;;;6.13;;
38605;SDS011;24365;48.446;8.850;2023-05-27T09:23:55;14.77;;;6.00;;
38605;SDS011;24365;48.446;8.850;2023-05-27T09:28:58;17.60;;;5.38;;
38605;SDS011;24365;48.446;8.850;2023-05-27T09:34:09;12.77;;;5.65;;
38605;SDS011;24365;48.446;8.850;2023-05-27T09:39:14;12.13;;;5.37;;
38605;SDS011;24365;48.446;8.850;2023-05-27T09:44:16;16.25;;;5.82;;
38605;SDS011;24365;48.446;8.850;2023-05-27T09:49:17;14.07;;;6.20;;
38605;SDS011;24365;48.446;8.850;2023-05-27T09:54:20;12.13;;;5.50;;
38605;SDS011;24365;48.446;8.850;2023-05-27T09:59:22;14.20;;;6.57;;
38605;SDS011;24365;48.446;8.850;2023-05-27T10:09:24;11.80;;;6.10;;
38605;SDS011;24365;48.446;8.850;2023-05-27T10:14:25;11.75;;;6.05;;
38605;SDS011;24365;48.446;8.850;2023-05-27T10:19:27;12.07;;;5.88;;
38605;SDS011;24365;48.446;8.850;2023-05-27T10:24:32;11.40;;;5.95;;
38605;SDS011;24365;48.446;8.850;2023-05-27T10:29:37;11.90;;;5.70;;
38605;SDS011;24365;48.446;8.850;2023-05-27T10:34:42;15.48;;;5.13;;
38605;SDS011;24365;48.446;8.850;2023-05-27T10:39:55;12.85;;;6.07;;
38605;SDS011;24365;48.446;8.850;2023-05-27T10:50:09;11.95;;;5.78;;
38605;SDS011;24365;48.446;8.850;2023-05-27T10:55:14;15.82;;;5.15;;
38605;SDS011;24365;48.446;8.850;2023-05-27T11:00:18;13.73;;;5.85;;
38605;SDS011;24365;48.446;8.850;2023-05-27T11:05:27;12.30;;;5.35;;
38605;SDS011;24365;48.446;8.850;2023-05-27T11:10:28;11.13;;;5.40;;
38605;SDS011;24365;48.446;8.850;2023-05-27T11:20:34;12.30;;;5.45;;
38605;SDS011;24365;48.446;8.850;2023-05-27T11:25:40;11.65;;;5.60;;
38605;SDS011;24365;48.446;8.850;2023-05-27T11:30:44;16.35;;;6.40;;
38605;SDS011;24365;48.446;8.850;2023-05-27T11:35:45;15.00;;;6.13;;
38605;SDS011;24365;48.446;8.850;2023-05-27T11:40:46;13.18;;;5.22;;
38605;SDS011;24365;48.446;8.850;2023-05-27T11:45:47;12.43;;;5.75;;
38605;SDS011;24365;48.446;8.850;2023-05-27T11:50:48;13.88;;;5.55;;
38605;SDS011;24365;48.446;8.850;2023-05-27T11:55:50;11.75;;;5.68;;
38605;SDS011;24365;48.446;8.850;2023-05-27T12:00:51;10.40;;;5.00;;
38605;SDS011;24365;48.446;8.850;2023-05-27T12:10:53;12.57;;;5.63;;
38605;SDS011;24365;48.446;8.850;2023-05-27T12:20:55;18.10;;;6.15;;
38605;SDS011;24365;48.446;8.850;2023-05-27T12:30:57;11.67;;;6.20;;
38605;SDS011;24365;48.446;8.850;2023-05-27T12:41:00;9.88;;;5.30;;
38605;SDS011;24365;48.446;8.850;2023-05-27T12:46:01;11.30;;;5.22;;
38605;SDS011;24365;48.446;8.850;2023-05-27T12:51:02;7.40;;;5.40;;
38605;SDS011;24365;48.446;8.850;2023-05-27T12:56:03;9.13;;;5.32;;
38605;SDS011;24365;48.446;8.850;2023-05-27T13:01:04;12.10;;;5.78;;
38605;SDS011;24365;48.446;8.850;2023-05-27T13:06:06;11.20;;;5.47;;
38605;SDS011;24365;48.446;8.850;2023-05-27T13:11:09;10.35;;;5.55;;
38605;SDS011;24365;48.446;8.850;2023-05-27T13:16:12;8.50;;;5.60;;
38605;SDS011;24365;48.446;8.850;2023-05-27T13:21:14;13.60;;;6.22;;
38605;SDS011;24365;48.446;8.850;2023-05-27T13:26:15;9.93;;;5.40;;
38605;SDS011;24365;48.446;8.850;2023-05-27T13:31:16;12.90;;;5.93;;
38605;SDS011;24365;48.446;8.850;2023-05-27T13:41:18;10.75;;;5.65;;
38605;SDS011;24365;48.446;8.850;2023-05-27T13:46:20;11.40;;;5.53;;
38605;SDS011;24365;48.446;8.850;2023-05-27T13:51:21;13.55;;;6.25;;
38605;SDS011;24365;48.446;8.850;2023-05-27T13:56:22;10.85;;;6.22;;
38605;SDS011;24365;48.446;8.850;2023-05-27T14:06:24;11.75;;;5.82;;
38605;SDS011;24365;48.446;8.850;2023-05-27T14:11:26;11.73;;;6.13;;
38605;SDS011;24365;48.446;8.850;2023-05-27T14:16:26;9.85;;;5.95;;
38605;SDS011;24365;48.446;8.850;2023-05-27T14:26:28;13.10;;;6.20;;
38605;SDS011;24365;48.446;8.850;2023-05-27T14:36:30;14.88;;;6.80;;
38605;SDS011;24365;48.446;8.850;2023-05-27T14:41:31;12.90;;;6.15;;
38605;SDS011;24365;48.446;8.850;2023-05-27T14:51:33;8.98;;;5.43;;
38605;SDS011;24365;48.446;8.850;2023-05-27T14:56:36;9.75;;;6.38;;
38605;SDS011;24365;48.446;8.850;2023-05-27T15:01:38;9.15;;;5.22;;
38605;SDS011;24365;48.446;8.850;2023-05-27T15:06:39;12.05;;;5.72;;
38605;SDS011;24365;48.446;8.850;2023-05-27T15:11:40;11.68;;;5.68;;
38605;SDS011;24365;48.446;8.850;2023-05-27T15:16:41;9.20;;;6.07;;
38605;SDS011;24365;48.446;8.850;2023-05-27T15:26:42;8.77;;;5.87;;
38605;SDS011;24365;48.446;8.850;2023-05-27T15:31:43;12.60;;;6.53;;
38605;SDS011;24365;48.446;8.850;2023-05-27T15:41:45;11.17;;;5.73;;
38605;SDS011;24365;48.446;8.850;2023-05-27T15:46:47;13.60;;;6.78;;
38605;SDS011;24365;48.446;8.850;2023-05-27T15:51:48;13.98;;;5.80;;
38605;SDS011;24365;48.446;8.850;2023-05-27T15:56:49;13.43;;;6.53;;
38605;SDS011;24365;48.446;8.850;2023-05-27T16:02:09;12.73;;;6.15;;
38605;SDS011;24365;48.446;8.850;2023-05-27T16:07:10;13.02;;;6.07;;
38605;SDS011;24365;48.446;8.850;2023-05-27T16:12:12;17.10;;;6.15;;
38605;SDS011;24365;48.446;8.850;2023-05-27T16:17:13;13.38;;;5.63;;
38605;SDS011;24365;48.446;8.850;2023-05-27T16:22:14;8.88;;;5.38;;
38605;SDS011;24365;48.446;8.850;2023-05-27T16:27:15;10.45;;;5.55;;
38605;SDS011;24365;48.446;8.850;2023-05-27T16:32:16;10.60;;;4.60;;
38605;SDS011;24365;48.446;8.850;2023-05-27T16:37:17;8.05;;;4.65;;
38605;SDS011;24365;48.446;8.850;2023-05-27T16:42:17;12.43;;;4.65;;
38605;SDS011;24365;48.446;8.850;2023-05-27T16:47:19;11.50;;;5.40;;
38605;SDS011;24365;48.446;8.850;2023-05-27T16:52:20;9.23;;;4.63;;
38605;SDS011;24365;48.446;8.850;2023-05-27T16:57:23;9.70;;;4.55;;
38605;SDS011;24365;48.446;8.850;2023-05-27T17:02:24;8.98;;;4.90;;
38605;SDS011;24365;48.446;8.850;2023-05-27T17:07:27;9.45;;;5.05;;
38605;SDS011;24365;48.446;8.850;2023-05-27T17:12:28;10.30;;;4.32;;
38605;SDS011;24365;48.446;8.850;2023-05-27T17:17:29;10.38;;;4.13;;
38605;SDS011;24365;48.446;8.850;2023-05-27T17:22:30;9.40;;;4.57;;
38605;SDS011;24365;48.446;8.850;2023-05-27T17:32:32;9.20;;;3.97;;
38605;SDS011;24365;48.446;8.850;2023-05-27T17:37:34;14.25;;;4.63;;
38605;SDS011;24365;48.446;8.850;2023-05-27T17:42:35;9.30;;;4.32;;
38605;SDS011;24365;48.446;8.850;2023-05-27T17:47:36;9.88;;;3.97;;
38605;SDS011;24365;48.446;8.850;2023-05-27T17:52:37;15.07;;;4.60;;
38605;SDS011;24365;48.446;8.850;2023-05-27T17:57:38;10.75;;;4.50;;
38605;SDS011;24365;48.446;8.850;2023-05-27T18:02:39;9.13;;;3.92;;
38605;SDS011;24365;48.446;8.850;2023-05-27T18:07:40;8.00;;;4.15;;
38605;SDS011;24365;48.446;8.850;2023-05-27T18:12:41;8.20;;;4.00;;
38605;SDS011;24365;48.446;8.850;2023-05-27T18:17:42;6.90;;;4.45;;
38605;SDS011;24365;48.446;8.850;2023-05-27T18:22:43;9.52;;;3.97;;
38605;SDS011;24365;48.446;8.850;2023-05-27T18:27:44;7.32;;;3.83;;
38605;SDS011;24365;48.446;8.850;2023-05-27T18:32:48;9.30;;;3.58;;
38605;SDS011;24365;48.446;8.850;2023-05-27T18:37:50;9.10;;;4.18;;
38605;SDS011;24365;48.446;8.850;2023-05-27T18:42:51;9.25;;;4.38;;
38605;SDS011;24365;48.446;8.850;2023-05-27T18:47:52;8.40;;;4.32;;
38605;SDS011;24365;48.446;8.850;2023-05-27T18:52:53;6.30;;;3.90;;
38605;SDS011;24365;48.446;8.850;2023-05-27T18:57:54;11.05;;;4.55;;
38605;SDS011;24365;48.446;8.850;2023-05-27T19:02:55;10.02;;;4.10;;
38605;SDS011;24365;48.446;8.850;2023-05-27T19:08:01;7.63;;;3.53;;
38605;SDS011;24365;48.446;8.850;2023-05-27T19:13:02;7.60;;;3.83;;
38605;SDS011;24365;48.446;8.850;2023-05-27T19:18:03;7.57;;;3.78;;
38605;SDS011;24365;48.446;8.850;2023-05-27T19:28:06;7.40;;;3.93;;
38605;SDS011;24365;48.446;8.850;2023-05-27T19:33:06;7.93;;;3.83;;
38605;SDS011;24365;48.446;8.850;2023-05-27T19:38:10;6.68;;;3.47;;
38605;SDS011;24365;48.446;8.850;2023-05-27T19:43:15;7.72;;;4.00;;
38605;SDS011;24365;48.446;8.850;2023-05-27T19:48:50;10.57;;;4.32;;
38605;SDS011;24365;48.446;8.850;2023-05-27T19:53:55;11.20;;;4.47;;
38605;SDS011;24365;48.446;8.850;2023-05-27T19:58:57;8.98;;;4.03;;
38605;SDS011;24365;48.446;8.850;2023-05-27T20:03:59;7.25;;;3.83;;
38605;SDS011;24365;48.446;8.850;2023-05-27T20:09:00;7.95;;;4.28;;
38605;SDS011;24365;48.446;8.850;2023-05-27T20:14:02;8.45;;;4.20;;
38605;SDS011;24365;48.446;8.850;2023-05-27T20:24:04;9.27;;;4.60;;
38605;SDS011;24365;48.446;8.850;2023-05-27T20:29:06;10.00;;;4.93;;
38605;SDS011;24365;48.446;8.850;2023-05-27T20:34:07;11.13;;;5.65;;
38605;SDS011;24365;48.446;8.850;2023-05-27T20:39:08;10.95;;;5.55;;
38605;SDS011;24365;48.446;8.850;2023-05-27T20:44:09;8.13;;;5.03;;
38605;SDS011;24365;48.446;8.850;2023-05-27T20:49:10;9.38;;;5.35;;
38605;SDS011;24365;48.446;8.850;2023-05-27T20:54:11;20.87;;;10.73;;
38605;SDS011;24365;48.446;8.850;2023-05-27T20:59:12;16.50;;;9.17;;
38605;SDS011;24365;48.446;8.850;2023-05-27T21:04:13;10.43;;;5.63;;
38605;SDS011;24365;48.446;8.850;2023-05-27T21:09:14;7.45;;;4.65;;
38605;SDS011;24365;48.446;8.850;2023-05-27T21:14:15;9.52;;;5.38;;
38605;SDS011;24365;48.446;8.850;2023-05-27T21:19:16;8.38;;;4.78;;
38605;SDS011;24365;48.446;8.850;2023-05-27T21:24:17;11.40;;;5.60;;
38605;SDS011;24365;48.446;8.850;2023-05-27T21:29:18;8.80;;;4.97;;
38605;SDS011;24365;48.446;8.850;2023-05-27T21:39:21;9.95;;;4.85;;
38605;SDS011;24365;48.446;8.850;2023-05-27T21:44:22;10.68;;;5.63;;
38605;SDS011;24365;48.446;8.850;2023-05-27T21:49:24;11.75;;;5.40;;
38605;SDS011;24365;48.446;8.850;2023-05-27T21:54:25;8.07;;;5.13;;
38605;SDS011;24365;48.446;8.850;2023-05-27T21:59:26;9.73;;;5.50;;
38605;SDS011;24365;48.446;8.850;2023-05-27T22:04:27;13.93;;;5.10;;
38605;SDS011;24365;48.446;8.850;2023-05-27T22:09:28;10.47;;;5.53;;
38605;SDS011;24365;48.446;8.850;2023-05-27T22:14:29;10.20;;;5.40;;
38605;SDS011;24365;48.446;8.850;2023-05-27T22:19:30;11.67;;;5.47;;
38605;SDS011;24365;48.446;8.850;2023-05-27T22:24:32;9.68;;;5.00;;
38605;SDS011;24365;48.446;8.850;2023-05-27T22:29:33;8.82;;;4.90;;
38605;SDS011;24365;48.446;8.850;2023-05-27T22:34:34;13.17;;;5.80;;
38605;SDS011;24365;48.446;8.850;2023-05-27T22:39:35;12.47;;;5.90;;
38605;SDS011;24365;48.446;8.850;2023-05-27T22:44:36;8.33;;;5.47;;
38605;SDS011;24365;48.446;8.850;2023-05-27T22:49:38;11.23;;;5.25;;
38605;SDS011;24365;48.446;8.850;2023-05-27T22:54:39;14.97;;;5.90;;
38605;SDS011;24365;48.446;8.850;2023-05-27T22:59:40;8.73;;;4.97;;
38605;SDS011;24365;48.446;8.850;2023-05-27T23:04:41;11.53;;;5.00;;
38605;SDS011;24365;48.446;8.850;2023-05-27T23:09:41;9.60;;;4.83;;
38605;SDS011;24365;48.446;8.850;2023-05-27T23:14:42;10.50;;;5.73;;
38605;SDS011;24365;48.446;8.850;2023-05-27T23:19:43;11.30;;;5.57;;
38605;SDS011;24365;48.446;8.850;2023-05-27T23:24:45;10.10;;;5.55;;
38605;SDS011;24365;48.446;8.850;2023-05-27T23:29:47;9.03;;;4.83;;
38605;SDS011;24365;48.446;8.850;2023-05-27T23:34:48;10.95;;;4.68;;
38605;SDS011;24365;48.446;8.850;2023-05-27T23:39:49;10.10;;;5.47;;
38605;SDS011;24365;48.446;8.850;2023-05-27T23:44:50;11.63;;;5.63;;
38605;SDS011;24365;48.446;8.850;2023-05-27T23:49:51;14.67;;;6.27;;
38605;SDS011;24365;48.446;8.850;2023-05-27T23:54:52;11.13;;;5.70;;
38605;SDS011;24365;48.446;8.850;2023-05-27T23:59:53;11.50;;;5.40;;
